createdAt,value
2022-12-01T00:00:06.511Z,18.83
2022-12-01T00:05:08.319Z,14.50
2022-12-01T00:10:27.003Z,17.77
2022-12-01T00:15:30.897Z,18.83
2022-12-01T00:20:36.137Z,17.90
2022-12-01T00:25:37.690Z,19.47
2022-12-01T00:30:39.160Z,21.73
2022-12-01T00:35:40.627Z,17.17
2022-12-01T00:40:42.425Z,20.67
2022-12-01T00:45:44.133Z,9.80
2022-12-01T00:50:45.754Z,17.63
2022-12-01T00:55:47.262Z,18.60
2022-12-01T01:00:48.933Z,13.67
2022-12-01T01:05:50.394Z,15.03
2022-12-01T01:10:51.838Z,14.30
2022-12-01T01:16:01.856Z,14.70
2022-12-01T01:21:06.534Z,19.20
2022-12-01T01:26:11.985Z,17.40
2022-12-01T01:31:15.966Z,19.27
2022-12-01T01:36:18.778Z,19.50
2022-12-01T01:41:20.677Z,17.20
2022-12-01T01:46:25.328Z,15.00
2022-12-01T01:51:31.029Z,14.63
2022-12-01T01:56:33.248Z,18.20
2022-12-01T02:01:34.884Z,17.80
2022-12-01T02:06:36.449Z,13.20
2022-12-01T02:12:11.419Z,16.87
2022-12-01T02:17:41.981Z,19.60
2022-12-01T02:23:08.337Z,17.47
2022-12-01T02:28:34.496Z,18.07
2022-12-01T02:33:42.139Z,18.70
2022-12-01T02:38:54.647Z,18.57
2022-12-01T02:44:17.676Z,20.73
2022-12-01T02:49:30.793Z,17.87
2022-12-01T02:54:33.324Z,15.70
2022-12-01T02:59:34.766Z,18.07
2022-12-01T03:04:46.548Z,19.87
2022-12-01T03:09:57.058Z,19.07
2022-12-01T03:15:44.321Z,17.33
2022-12-01T03:20:53.144Z,16.97
2022-12-01T03:25:55.717Z,16.90
2022-12-01T03:31:00.223Z,17.57
2022-12-01T03:36:04.176Z,17.73
2022-12-01T03:41:10.886Z,18.47
2022-12-01T03:46:17.668Z,14.90
2022-12-01T03:51:27.128Z,16.80
2022-12-01T03:56:33.027Z,20.70
2022-12-01T04:01:34.950Z,18.00
2022-12-01T04:06:36.578Z,19.30
2022-12-01T04:11:56.534Z,18.73
2022-12-01T04:16:57.969Z,18.20
2022-12-01T04:21:59.425Z,18.07
2022-12-01T04:27:00.822Z,18.20
2022-12-01T04:32:02.272Z,19.93
2022-12-01T04:37:04.792Z,21.33
2022-12-01T04:42:06.246Z,20.80
2022-12-01T04:47:07.753Z,22.63
2022-12-01T04:52:09.239Z,22.37
2022-12-01T04:57:10.666Z,21.87
2022-12-01T05:02:12.344Z,20.30
2022-12-01T05:07:13.856Z,19.13
2022-12-01T05:12:17.095Z,21.77
2022-12-01T05:17:18.597Z,19.70
2022-12-01T05:22:31.464Z,21.53
2022-12-01T05:27:41.574Z,21.30
2022-12-01T05:32:43.207Z,20.93
2022-12-01T05:37:44.678Z,18.50
2022-12-01T05:42:46.127Z,17.33
2022-12-01T05:47:47.553Z,17.80
2022-12-01T05:52:49.208Z,13.20
2022-12-01T05:57:50.752Z,20.83
2022-12-01T06:02:52.221Z,18.53
2022-12-01T06:07:53.725Z,19.17
2022-12-01T06:12:55.208Z,24.33
2022-12-01T06:17:59.539Z,22.57
2022-12-01T06:23:01.054Z,18.77
2022-12-01T06:28:02.600Z,22.27
2022-12-01T06:33:04.057Z,24.63
2022-12-01T06:38:05.510Z,19.10
2022-12-01T06:43:07.021Z,17.03
2022-12-01T06:48:09.201Z,20.47
2022-12-01T06:53:11.338Z,21.53
2022-12-01T06:58:12.752Z,20.97
2022-12-01T07:03:14.558Z,22.10
2022-12-01T07:08:16.075Z,23.60
2022-12-01T07:13:17.534Z,21.43
2022-12-01T07:18:19.042Z,23.57
2022-12-01T07:23:21.404Z,24.47
2022-12-01T07:28:22.839Z,23.80
2022-12-01T07:33:24.314Z,23.67
2022-12-01T07:38:27.874Z,22.70
2022-12-01T07:43:31.068Z,17.37
2022-12-01T07:48:32.544Z,20.77
2022-12-01T07:53:34.205Z,25.60
2022-12-01T07:58:35.935Z,26.73
2022-12-01T08:03:38.138Z,25.20
2022-12-01T08:08:40.980Z,25.17
2022-12-01T08:13:43.078Z,28.93
2022-12-01T08:18:44.894Z,28.90
2022-12-01T08:23:46.711Z,30.43
2022-12-01T08:28:48.900Z,29.20
2022-12-01T08:33:50.972Z,30.00
2022-12-01T08:38:53.903Z,29.20
2022-12-01T08:43:58.897Z,28.50
2022-12-01T08:49:02.332Z,26.20
2022-12-01T08:54:04.083Z,25.53
2022-12-01T08:59:05.707Z,27.47
2022-12-01T09:04:09.917Z,27.70
2022-12-01T09:09:13.678Z,27.03
2022-12-01T09:14:16.734Z,25.50
2022-12-01T09:19:24.203Z,25.90
2022-12-01T09:24:26.989Z,27.40
2022-12-01T09:29:28.466Z,26.80
2022-12-01T09:34:30.076Z,28.50
2022-12-01T09:39:31.616Z,30.23
2022-12-01T09:44:36.338Z,29.07
2022-12-01T09:50:01.926Z,32.77
2022-12-01T09:55:03.753Z,31.27
2022-12-01T10:00:18.618Z,29.70
2022-12-01T10:05:22.145Z,28.57
2022-12-01T10:11:01.500Z,26.03
2022-12-01T10:16:26.419Z,25.30
2022-12-01T10:21:46.126Z,28.27
2022-12-01T10:27:23.135Z,26.00
2022-12-01T10:32:34.790Z,24.03
2022-12-01T10:37:36.335Z,25.73
2022-12-01T10:42:42.703Z,26.50
2022-12-01T10:48:16.510Z,26.87
2022-12-01T10:53:30.049Z,27.90
2022-12-01T10:58:33.649Z,25.27
2022-12-01T11:03:36.363Z,25.47
2022-12-01T11:08:45.450Z,23.03
2022-12-01T11:13:46.975Z,22.20
2022-12-01T11:18:48.489Z,21.73
2022-12-01T11:23:51.903Z,22.97
2022-12-01T11:29:36.161Z,24.67
2022-12-01T11:34:38.400Z,23.13
2022-12-01T11:39:41.671Z,23.73
2022-12-01T11:45:09.803Z,22.77
2022-12-01T11:50:26.291Z,24.90
2022-12-01T11:55:29.912Z,23.67
2022-12-01T12:00:47.457Z,23.90
2022-12-01T12:05:52.785Z,24.00
2022-12-01T12:11:20.454Z,23.43
2022-12-01T12:16:52.777Z,21.40
2022-12-01T12:22:12.484Z,21.30
2022-12-01T12:27:31.256Z,24.75
2022-12-01T12:32:54.186Z,22.70
2022-12-01T12:38:05.065Z,19.13
2022-12-01T12:43:23.034Z,25.00
2022-12-01T12:48:50.888Z,21.90
2022-12-01T12:54:06.579Z,22.00
2022-12-01T12:59:11.946Z,22.73
2022-12-01T13:04:21.987Z,20.60
2022-12-01T13:09:28.761Z,20.60
2022-12-01T13:14:37.158Z,22.17
2022-12-01T13:19:40.483Z,19.63
2022-12-01T13:24:42.567Z,22.30
2022-12-01T13:29:47.936Z,19.70
2022-12-01T13:34:49.535Z,18.47
2022-12-01T13:39:54.205Z,19.10
2022-12-01T13:44:58.569Z,20.47
2022-12-01T13:50:39.041Z,15.93
2022-12-01T13:56:04.038Z,18.17
2022-12-01T14:01:42.142Z,19.57
2022-12-01T14:06:52.480Z,17.87
2022-12-01T14:11:58.615Z,19.90
2022-12-01T14:17:03.261Z,23.10
2022-12-01T14:22:06.617Z,22.10
2022-12-01T14:27:11.757Z,17.50
2022-12-01T14:32:16.195Z,20.60
2022-12-01T14:37:20.128Z,19.10
2022-12-01T14:42:56.093Z,19.57
2022-12-01T14:48:04.562Z,20.33
2022-12-01T14:53:29.356Z,17.70
2022-12-01T14:58:31.939Z,18.80
2022-12-01T15:03:39.641Z,19.17
2022-12-01T15:08:49.255Z,17.97
2022-12-01T15:13:56.329Z,18.90
2022-12-01T15:18:57.985Z,17.93
2022-12-01T15:24:02.151Z,17.90
2022-12-01T15:29:28.156Z,18.80
2022-12-01T15:34:32.225Z,19.17
2022-12-01T15:39:36.347Z,18.10
2022-12-01T15:44:38.037Z,21.33
2022-12-01T15:49:48.648Z,18.93
2022-12-01T15:54:50.844Z,18.97
2022-12-01T15:59:57.143Z,19.43
2022-12-01T16:05:16.453Z,19.53
2022-12-01T16:11:07.297Z,20.47
2022-12-01T16:16:21.131Z,21.13
2022-12-01T16:21:22.896Z,22.83
2022-12-01T16:26:24.464Z,22.00
2022-12-01T16:31:26.781Z,20.17
2022-12-01T16:36:28.394Z,21.00
2022-12-01T16:41:38.147Z,20.50
2022-12-01T16:46:40.763Z,19.30
2022-12-01T16:51:55.447Z,20.47
2022-12-01T16:56:58.235Z,19.17
2022-12-01T17:02:00.320Z,17.63
2022-12-01T17:07:01.878Z,17.80
2022-12-01T17:12:03.458Z,18.77
2022-12-01T17:17:04.900Z,18.73
2022-12-01T17:22:06.404Z,19.73
2022-12-01T17:27:07.895Z,18.47
2022-12-01T17:32:10.868Z,21.37
2022-12-01T17:37:17.491Z,20.47
2022-12-01T17:42:22.244Z,20.10
2022-12-01T17:47:23.802Z,20.17
2022-12-01T17:52:28.387Z,19.77
2022-12-01T17:57:30.105Z,20.17
2022-12-01T18:02:31.584Z,18.53
2022-12-01T18:07:33.121Z,21.27
2022-12-01T18:12:34.637Z,21.07
2022-12-01T18:17:36.431Z,20.03
2022-12-01T18:22:37.883Z,21.10
2022-12-01T18:27:39.315Z,20.77
2022-12-01T18:32:40.853Z,18.50
2022-12-01T18:37:42.515Z,20.17
2022-12-01T18:42:44.026Z,19.93
2022-12-01T18:47:45.707Z,20.70
2022-12-01T18:52:47.175Z,18.63
2022-12-01T18:57:48.616Z,18.40
2022-12-01T19:02:50.073Z,21.30
2022-12-01T19:07:53.995Z,19.80
2022-12-01T19:12:55.521Z,19.60
2022-12-01T19:17:57.066Z,20.13
2022-12-01T19:22:58.833Z,21.60
2022-12-01T19:28:00.297Z,22.73
2022-12-01T19:33:01.740Z,19.90
2022-12-01T19:38:03.189Z,19.17
2022-12-01T19:43:05.883Z,19.43
2022-12-01T19:48:07.346Z,19.00
2022-12-01T19:53:08.806Z,19.10
2022-12-01T19:58:10.377Z,29.97
2022-12-01T20:03:11.926Z,19.90
2022-12-01T20:08:13.906Z,18.73
2022-12-01T20:13:15.421Z,18.13
2022-12-01T20:18:16.952Z,21.77
2022-12-01T20:23:18.503Z,19.67
2022-12-01T20:28:19.985Z,19.43
2022-12-01T20:33:21.900Z,18.83
2022-12-01T20:38:27.472Z,18.77
2022-12-01T20:43:29.450Z,25.70
2022-12-01T20:48:31.645Z,23.67
2022-12-01T20:53:33.442Z,25.27
2022-12-01T20:58:37.794Z,21.87
2022-12-01T21:03:42.033Z,19.90
2022-12-01T21:08:44.997Z,20.00
2022-12-01T21:13:46.876Z,20.63
2022-12-01T21:18:51.234Z,21.67
2022-12-01T21:24:07.697Z,20.07
2022-12-01T21:29:18.380Z,20.97
2022-12-01T21:34:25.720Z,19.27
2022-12-01T21:39:29.330Z,20.20
2022-12-01T21:44:37.755Z,18.93
2022-12-01T21:49:39.683Z,22.23
2022-12-01T21:54:41.200Z,21.20
2022-12-01T21:59:42.655Z,22.00
2022-12-01T22:04:44.122Z,18.97
2022-12-01T22:09:45.602Z,18.87
2022-12-01T22:14:48.937Z,18.70
2022-12-01T22:20:17.726Z,17.57
2022-12-01T22:25:25.308Z,18.87
2022-12-01T22:30:26.794Z,18.97
2022-12-01T22:35:49.088Z,17.53
2022-12-01T22:41:12.062Z,18.80
2022-12-01T22:46:22.748Z,17.53
2022-12-01T22:51:37.267Z,18.87
2022-12-01T22:56:38.727Z,17.40
2022-12-01T23:01:47.030Z,21.50
2022-12-01T23:06:54.486Z,18.20
2022-12-01T23:12:00.078Z,17.53
2022-12-01T23:17:07.265Z,17.87
2022-12-01T23:22:09.647Z,18.30
2022-12-01T23:27:11.377Z,17.97
2022-12-01T23:32:12.961Z,18.23
2022-12-01T23:37:35.293Z,18.93
2022-12-01T23:42:36.718Z,18.53
2022-12-01T23:47:38.191Z,19.73
2022-12-01T23:52:40.221Z,18.80
2022-12-01T23:57:41.705Z,17.50
